Terminal Aerodrome Forecast
Issued by NWS Twin Cities, MN

Home | Current Version | Previous Version | Graphics & Text | Print | Product List | Glossary On
Versions: 1 2 3 4 5 6 7 8 9 10 11 12 13 14 15 16 17 18 19 20 21 22 23 24 25 26 27 28 29 30 31 32
294
FTUS43 KMPX 231741
TAFMSP
TAF
KMSP 231741Z 2318/2424 08014KT P6SM SCT025 OVC035
     FM232100 09012KT P6SM VCSH SCT010 OVC020
     FM240100 11010KT P6SM SCT006 OVC015
     FM241000 12010KT P6SM OVC007
     FM241500 12012KT P6SM SCT008 OVC015
     FM241900 12012KT P6SM BKN025=

USA.gov is the U.S. government's official web portal to all federal, state and local government web resources and services.